Col Jabara, KS

12:49 CDT le 31 octobre 2014 (GMT -0500)
McConnell Air Force Base | Change Station
CLOSE
Current Station
Aéroport
Location: McConnell AFB,
Altitude: 1371 ft
Stations météo à proximité
Avis météorologiques actifs: Freeze Warning

Alt. 1371 ft 37.62 °N, 97.27 °W | Updated 41 minutes ago

Ciel dégagé
Ciel dégagé
43 ° F
Paraît 36 ° F
N
13
Vent Variable Vent de Nord

Aujourd'hui
Haut(e) -- | Bas -- ° F
--% Risque de précip.
Hier
Haut(e) -- | Bas -- ° F
Precip. -- pouce
7:53 AM 6:31 PM
Premier quartier, 57% visible
Pression 30.51 pouce
Visibilité 10.0 Miles terrestres
Nuages Ciel dégagé
Refroidissement éolien 36 ° F
Point de rosée 23 ° F
Humidité 46%
Précipitations 0.00 pouce
Profondeur de la couche neigeuse Non disponible.
UV 4 sur 12
Pollen 1.60 sur 12
Qualité de l'air Non disponible.
Flu Activity Non disponible.
SPECI KIAB 311708Z AUTO 36011KT 10SM CLR 06/M05 A3051 RMK AO2 WSHFT 1653

More Conditions Fewer Conditions

Pression 30.51 pouce
Visibilité 10.0 Miles terrestres
Nuages Ciel dégagé
Refroidissement éolien 36 ° F
Point de rosée 23 ° F
Humidité 46%
Précipitations 0.00 pouce
Profondeur de la couche neigeuse Non disponible.
UV 4 sur 12
Pollen 1.60 sur 12
Qualité de l'air Non disponible.
Flu Activity Non disponible.
SPECI KIAB 311708Z AUTO 36011KT 10SM CLR 06/M05 A3051 RMK AO2 WSHFT 1653

More Conditions Fewer Conditions

10-Day Weather Forecast

Almanac

Astronomie

Oct. 31, 2014 Lever Coucher
Temps réel
Crépuscule civil
Crépuscule nautique
Crépuscule astronomique
Lune
Durée de lumière visible
Longueur du jour
Tomorrow will be .
, % of the Moon is Illuminated

Extrêmes aujourd'hui

State Highs State Lows

Community

WunderPhotos

Upload Photos

1,766,673 Photos téléchargées !

WunderBlogs® & News

Nearby

Qualité de l'air

  Qualité de l'air Indice de la qualité de l'air Polluant
Not available.

Épaisseur de neige

Station Depth Altitude

Activité sismique

Ville Distance Mag. Time & Date
Minimum magnitude displayed is 2.5.

Températures des eaux côtières

Lieu Température

Stations météo à proximité